sensor_id;sensor_type;location;lat;lon;timestamp;temperature;humidity
6810;DHT22;3443;48.812;9.112;2022-10-26T00:01:14;12.70;99.90
6810;DHT22;3443;48.812;9.112;2022-10-26T00:03:41;12.40;99.90
6810;DHT22;3443;48.812;9.112;2022-10-26T00:06:09;12.40;99.90
6810;DHT22;3443;48.812;9.112;2022-10-26T00:08:35;12.40;99.90
6810;DHT22;3443;48.812;9.112;2022-10-26T00:11:01;12.30;99.90
6810;DHT22;3443;48.812;9.112;2022-10-26T00:13:27;12.40;99.90
6810;DHT22;3443;48.812;9.112;2022-10-26T00:15:53;12.40;99.90
6810;DHT22;3443;48.812;9.112;2022-10-26T00:18:19;12.40;99.90
6810;DHT22;3443;48.812;9.112;2022-10-26T00:20:44;12.30;99.90
6810;DHT22;3443;48.812;9.112;2022-10-26T00:23:10;12.50;99.90
6810;DHT22;3443;48.812;9.112;2022-10-26T00:25:35;12.50;99.90
6810;DHT22;3443;48.812;9.112;2022-10-26T00:28:01;12.50;99.90
6810;DHT22;3443;48.812;9.112;2022-10-26T00:30:26;12.50;99.90
6810;DHT22;3443;48.812;9.112;2022-10-26T00:32:52;12.50;99.90
6810;DHT22;3443;48.812;9.112;2022-10-26T00:35:18;12.50;99.90
6810;DHT22;3443;48.812;9.112;2022-10-26T00:37:43;12.50;99.90
6810;DHT22;3443;48.812;9.112;2022-10-26T00:40:09;12.50;99.90
6810;DHT22;3443;48.812;9.112;2022-10-26T00:42:35;12.50;99.90
6810;DHT22;3443;48.812;9.112;2022-10-26T00:45:26;12.60;99.90
6810;DHT22;3443;48.812;9.112;2022-10-26T00:47:56;12.60;99.90
6810;DHT22;3443;48.812;9.112;2022-10-26T00:50:34;12.60;99.90
6810;DHT22;3443;48.812;9.112;2022-10-26T00:53:02;12.60;99.90
6810;DHT22;3443;48.812;9.112;2022-10-26T00:55:32;12.60;99.90
6810;DHT22;3443;48.812;9.112;2022-10-26T00:58:00;12.40;99.90
6810;DHT22;3443;48.812;9.112;2022-10-26T01:00:26;12.70;99.90
6810;DHT22;3443;48.812;9.112;2022-10-26T01:02:54;12.70;99.90
6810;DHT22;3443;48.812;9.112;2022-10-26T01:05:20;12.70;99.90
6810;DHT22;3443;48.812;9.112;2022-10-26T01:07:46;12.70;99.90
6810;DHT22;3443;48.812;9.112;2022-10-26T01:10:12;12.80;99.90
6810;DHT22;3443;48.812;9.112;2022-10-26T01:12:39;12.80;99.90
6810;DHT22;3443;48.812;9.112;2022-10-26T01:15:05;12.60;99.90
6810;DHT22;3443;48.812;9.112;2022-10-26T01:17:55;12.80;99.90
6810;DHT22;3443;48.812;9.112;2022-10-26T01:20:34;12.80;99.90
6810;DHT22;3443;48.812;9.112;2022-10-26T01:31:26;12.70;99.90
6810;DHT22;3443;48.812;9.112;2022-10-26T01:34:00;12.70;99.90
6810;DHT22;3443;48.812;9.112;2022-10-26T01:36:37;12.70;99.90
6810;DHT22;3443;48.812;9.112;2022-10-26T01:39:36;12.80;99.90
6810;DHT22;3443;48.812;9.112;2022-10-26T01:42:04;12.70;99.90
6810;DHT22;3443;48.812;9.112;2022-10-26T01:44:55;12.70;99.90
6810;DHT22;3443;48.812;9.112;2022-10-26T01:47:22;12.70;99.90
6810;DHT22;3443;48.812;9.112;2022-10-26T01:49:52;12.70;99.90
6810;DHT22;3443;48.812;9.112;2022-10-26T01:52:20;12.90;99.90
6810;DHT22;3443;48.812;9.112;2022-10-26T01:54:46;12.80;99.90
6810;DHT22;3443;48.812;9.112;2022-10-26T01:57:14;12.70;99.90
6810;DHT22;3443;48.812;9.112;2022-10-26T02:08:07;12.60;99.90
6810;DHT22;3443;48.812;9.112;2022-10-26T02:13:32;12.60;99.90
6810;DHT22;3443;48.812;9.112;2022-10-26T02:16:22;12.50;99.90
6810;DHT22;3443;48.812;9.112;2022-10-26T02:19:05;12.50;99.90
6810;DHT22;3443;48.812;9.112;2022-10-26T02:21:38;12.40;99.90
6810;DHT22;3443;48.812;9.112;2022-10-26T02:24:07;12.40;99.90
6810;DHT22;3443;48.812;9.112;2022-10-26T02:26:35;12.40;99.90
6810;DHT22;3443;48.812;9.112;2022-10-26T02:29:04;12.30;99.90
6810;DHT22;3443;48.812;9.112;2022-10-26T02:31:33;12.40;99.90
6810;DHT22;3443;48.812;9.112;2022-10-26T02:34:02;12.40;99.90
6810;DHT22;3443;48.812;9.112;2022-10-26T02:36:33;12.40;99.90
6810;DHT22;3443;48.812;9.112;2022-10-26T02:39:02;12.40;99.90
6810;DHT22;3443;48.812;9.112;2022-10-26T02:41:30;12.40;99.90
6810;DHT22;3443;48.812;9.112;2022-10-26T02:44:01;12.30;99.90
6810;DHT22;3443;48.812;9.112;2022-10-26T02:46:29;12.50;99.90
6810;DHT22;3443;48.812;9.112;2022-10-26T02:48:55;12.60;99.90
6810;DHT22;3443;48.812;9.112;2022-10-26T02:51:32;12.30;99.90
6810;DHT22;3443;48.812;9.112;2022-10-26T02:57:15;12.30;99.90
6810;DHT22;3443;48.812;9.112;2022-10-26T02:59:43;12.40;99.90
6810;DHT22;3443;48.812;9.112;2022-10-26T03:02:13;12.30;99.90
6810;DHT22;3443;48.812;9.112;2022-10-26T03:04:40;12.50;99.90
6810;DHT22;3443;48.812;9.112;2022-10-26T03:07:06;12.30;99.90
6810;DHT22;3443;48.812;9.112;2022-10-26T03:09:32;12.30;99.90
6810;DHT22;3443;48.812;9.112;2022-10-26T03:11:57;12.20;99.90
6810;DHT22;3443;48.812;9.112;2022-10-26T03:14:23;12.30;99.90
6810;DHT22;3443;48.812;9.112;2022-10-26T03:16:48;12.30;99.90
6810;DHT22;3443;48.812;9.112;2022-10-26T03:19:14;12.20;99.90
6810;DHT22;3443;48.812;9.112;2022-10-26T03:21:40;12.30;99.90
6810;DHT22;3443;48.812;9.112;2022-10-26T03:24:07;12.30;99.90
6810;DHT22;3443;48.812;9.112;2022-10-26T03:26:33;12.30;99.90
6810;DHT22;3443;48.812;9.112;2022-10-26T03:28:58;12.40;99.90
6810;DHT22;3443;48.812;9.112;2022-10-26T03:31:24;12.40;99.90
6810;DHT22;3443;48.812;9.112;2022-10-26T03:33:49;12.50;99.90
6810;DHT22;3443;48.812;9.112;2022-10-26T03:36:15;12.30;99.90
6810;DHT22;3443;48.812;9.112;2022-10-26T03:38:41;12.60;99.90
6810;DHT22;3443;48.812;9.112;2022-10-26T03:41:06;12.30;99.90
6810;DHT22;3443;48.812;9.112;2022-10-26T03:43:32;12.40;99.90
6810;DHT22;3443;48.812;9.112;2022-10-26T03:45:57;12.30;99.90
6810;DHT22;3443;48.812;9.112;2022-10-26T03:48:23;12.30;99.90
6810;DHT22;3443;48.812;9.112;2022-10-26T03:50:48;12.30;99.90
6810;DHT22;3443;48.812;9.112;2022-10-26T03:53:14;12.30;99.90
6810;DHT22;3443;48.812;9.112;2022-10-26T03:55:43;12.20;99.90
6810;DHT22;3443;48.812;9.112;2022-10-26T03:58:09;12.20;99.90
6810;DHT22;3443;48.812;9.112;2022-10-26T04:00:34;12.20;99.90
6810;DHT22;3443;48.812;9.112;2022-10-26T04:03:00;12.30;99.90
6810;DHT22;3443;48.812;9.112;2022-10-26T04:05:27;12.30;99.90
6810;DHT22;3443;48.812;9.112;2022-10-26T04:07:58;12.30;99.90
6810;DHT22;3443;48.812;9.112;2022-10-26T04:10:25;12.40;99.90
6810;DHT22;3443;48.812;9.112;2022-10-26T04:12:51;12.50;99.90
6810;DHT22;3443;48.812;9.112;2022-10-26T04:15:17;12.60;99.90
6810;DHT22;3443;48.812;9.112;2022-10-26T04:17:43;12.60;99.90
6810;DHT22;3443;48.812;9.112;2022-10-26T04:20:09;12.60;99.90
6810;DHT22;3443;48.812;9.112;2022-10-26T04:22:35;12.70;99.90
6810;DHT22;3443;48.812;9.112;2022-10-26T04:25:02;12.70;99.90
6810;DHT22;3443;48.812;9.112;2022-10-26T04:27:28;12.70;99.90
6810;DHT22;3443;48.812;9.112;2022-10-26T04:29:53;12.80;99.90
6810;DHT22;3443;48.812;9.112;2022-10-26T04:32:19;12.70;99.90
6810;DHT22;3443;48.812;9.112;2022-10-26T04:34:44;12.90;99.90
6810;DHT22;3443;48.812;9.112;2022-10-26T04:37:10;12.80;99.90
6810;DHT22;3443;48.812;9.112;2022-10-26T04:39:35;12.90;99.90
6810;DHT22;3443;48.812;9.112;2022-10-26T04:42:01;12.90;99.90
6810;DHT22;3443;48.812;9.112;2022-10-26T04:44:26;13.00;99.90
6810;DHT22;3443;48.812;9.112;2022-10-26T04:46:52;13.10;99.90
6810;DHT22;3443;48.812;9.112;2022-10-26T04:49:17;13.20;99.90
6810;DHT22;3443;48.812;9.112;2022-10-26T04:51:43;13.20;99.90
6810;DHT22;3443;48.812;9.112;2022-10-26T04:54:09;13.30;99.90
6810;DHT22;3443;48.812;9.112;2022-10-26T04:56:34;13.30;99.90
6810;DHT22;3443;48.812;9.112;2022-10-26T04:59:00;13.40;99.90
6810;DHT22;3443;48.812;9.112;2022-10-26T05:01:26;13.40;99.90
6810;DHT22;3443;48.812;9.112;2022-10-26T05:03:52;13.50;99.90
6810;DHT22;3443;48.812;9.112;2022-10-26T05:06:18;13.50;99.90
6810;DHT22;3443;48.812;9.112;2022-10-26T05:08:44;13.50;99.90
6810;DHT22;3443;48.812;9.112;2022-10-26T05:11:10;13.60;99.90
6810;DHT22;3443;48.812;9.112;2022-10-26T05:13:35;13.50;99.90
6810;DHT22;3443;48.812;9.112;2022-10-26T05:16:01;13.40;99.90
6810;DHT22;3443;48.812;9.112;2022-10-26T05:18:26;13.40;99.90
6810;DHT22;3443;48.812;9.112;2022-10-26T05:20:52;13.40;99.90
6810;DHT22;3443;48.812;9.112;2022-10-26T05:23:19;13.40;99.90
6810;DHT22;3443;48.812;9.112;2022-10-26T05:25:44;13.50;99.90
6810;DHT22;3443;48.812;9.112;2022-10-26T05:28:11;13.60;99.90
6810;DHT22;3443;48.812;9.112;2022-10-26T05:30:41;13.70;99.90
6810;DHT22;3443;48.812;9.112;2022-10-26T05:33:08;13.80;99.90
6810;DHT22;3443;48.812;9.112;2022-10-26T05:35:34;13.90;99.90
6810;DHT22;3443;48.812;9.112;2022-10-26T05:38:15;13.90;99.90
6810;DHT22;3443;48.812;9.112;2022-10-26T05:40:48;13.90;99.90
6810;DHT22;3443;48.812;9.112;2022-10-26T05:43:14;13.90;99.90
6810;DHT22;3443;48.812;9.112;2022-10-26T05:45:39;14.00;99.90
6810;DHT22;3443;48.812;9.112;2022-10-26T05:48:05;14.00;99.90
6810;DHT22;3443;48.812;9.112;2022-10-26T05:50:30;13.90;99.90
6810;DHT22;3443;48.812;9.112;2022-10-26T05:52:56;13.90;99.90
6810;DHT22;3443;48.812;9.112;2022-10-26T05:55:22;13.90;99.90
6810;DHT22;3443;48.812;9.112;2022-10-26T05:57:48;13.90;99.90
6810;DHT22;3443;48.812;9.112;2022-10-26T06:00:16;13.90;99.90
6810;DHT22;3443;48.812;9.112;2022-10-26T06:02:47;14.00;99.90
6810;DHT22;3443;48.812;9.112;2022-10-26T06:05:21;14.00;99.90
6810;DHT22;3443;48.812;9.112;2022-10-26T06:07:48;13.90;99.90
6810;DHT22;3443;48.812;9.112;2022-10-26T06:10:14;13.90;99.90
6810;DHT22;3443;48.812;9.112;2022-10-26T06:12:40;13.90;99.90
6810;DHT22;3443;48.812;9.112;2022-10-26T06:15:08;14.00;99.90
6810;DHT22;3443;48.812;9.112;2022-10-26T06:17:35;14.10;99.90
6810;DHT22;3443;48.812;9.112;2022-10-26T06:20:25;14.10;99.90
6810;DHT22;3443;48.812;9.112;2022-10-26T06:23:12;14.10;99.90
6810;DHT22;3443;48.812;9.112;2022-10-26T06:28:58;14.10;99.90
6810;DHT22;3443;48.812;9.112;2022-10-26T06:31:28;14.00;99.90
6810;DHT22;3443;48.812;9.112;2022-10-26T06:33:57;14.10;99.90
6810;DHT22;3443;48.812;9.112;2022-10-26T06:36:25;14.10;99.90
6810;DHT22;3443;48.812;9.112;2022-10-26T06:39:02;14.20;99.90
6810;DHT22;3443;48.812;9.112;2022-10-26T06:41:33;14.40;99.90
6810;DHT22;3443;48.812;9.112;2022-10-26T06:43:59;14.50;99.90
6810;DHT22;3443;48.812;9.112;2022-10-26T06:46:45;14.60;99.90
6810;DHT22;3443;48.812;9.112;2022-10-26T06:49:34;14.70;99.90
6810;DHT22;3443;48.812;9.112;2022-10-26T06:54:57;14.70;99.90
6810;DHT22;3443;48.812;9.112;2022-10-26T06:57:31;14.80;99.90
6810;DHT22;3443;48.812;9.112;2022-10-26T07:00:00;14.80;99.90
6810;DHT22;3443;48.812;9.112;2022-10-26T07:02:26;15.00;99.90
6810;DHT22;3443;48.812;9.112;2022-10-26T07:04:52;14.80;99.90
6810;DHT22;3443;48.812;9.112;2022-10-26T07:07:20;14.90;99.90
6810;DHT22;3443;48.812;9.112;2022-10-26T07:09:46;14.80;99.90
6810;DHT22;3443;48.812;9.112;2022-10-26T07:12:12;15.20;99.90
6810;DHT22;3443;48.812;9.112;2022-10-26T07:14:37;14.90;99.90
6810;DHT22;3443;48.812;9.112;2022-10-26T07:17:04;15.00;99.90
6810;DHT22;3443;48.812;9.112;2022-10-26T07:19:30;15.10;99.90
6810;DHT22;3443;48.812;9.112;2022-10-26T07:21:56;14.80;99.90
6810;DHT22;3443;48.812;9.112;2022-10-26T07:24:24;14.70;99.90
6810;DHT22;3443;48.812;9.112;2022-10-26T07:26:52;14.80;99.90
6810;DHT22;3443;48.812;9.112;2022-10-26T07:29:17;14.80;99.90
6810;DHT22;3443;48.812;9.112;2022-10-26T07:31:43;15.10;99.90
6810;DHT22;3443;48.812;9.112;2022-10-26T07:34:09;15.10;99.90
6810;DHT22;3443;48.812;9.112;2022-10-26T07:36:34;15.00;99.90
6810;DHT22;3443;48.812;9.112;2022-10-26T07:39:02;15.10;99.90
6810;DHT22;3443;48.812;9.112;2022-10-26T07:41:28;15.10;99.90
6810;DHT22;3443;48.812;9.112;2022-10-26T07:43:54;15.00;99.90
6810;DHT22;3443;48.812;9.112;2022-10-26T07:46:19;15.20;99.90
6810;DHT22;3443;48.812;9.112;2022-10-26T07:48:45;15.10;99.90
6810;DHT22;3443;48.812;9.112;2022-10-26T07:51:10;15.10;99.90
6810;DHT22;3443;48.812;9.112;2022-10-26T07:53:36;15.10;99.90
6810;DHT22;3443;48.812;9.112;2022-10-26T07:56:02;15.30;99.90
6810;DHT22;3443;48.812;9.112;2022-10-26T07:58:27;15.10;99.90
6810;DHT22;3443;48.812;9.112;2022-10-26T08:00:53;15.50;99.90
6810;DHT22;3443;48.812;9.112;2022-10-26T08:03:19;15.10;99.90
6810;DHT22;3443;48.812;9.112;2022-10-26T08:05:48;15.20;99.90
6810;DHT22;3443;48.812;9.112;2022-10-26T08:08:20;15.30;99.90
6810;DHT22;3443;48.812;9.112;2022-10-26T08:10:46;15.20;99.90
6810;DHT22;3443;48.812;9.112;2022-10-26T08:13:13;15.50;99.90
6810;DHT22;3443;48.812;9.112;2022-10-26T08:15:39;15.50;99.90
6810;DHT22;3443;48.812;9.112;2022-10-26T08:18:05;15.30;99.90
6810;DHT22;3443;48.812;9.112;2022-10-26T08:20:31;15.30;99.90
6810;DHT22;3443;48.812;9.112;2022-10-26T08:22:58;15.60;99.90
6810;DHT22;3443;48.812;9.112;2022-10-26T08:25:24;15.60;99.90
6810;DHT22;3443;48.812;9.112;2022-10-26T08:27:49;15.30;99.90
6810;DHT22;3443;48.812;9.112;2022-10-26T08:30:15;15.40;99.90
6810;DHT22;3443;48.812;9.112;2022-10-26T08:32:41;15.60;99.90
6810;DHT22;3443;48.812;9.112;2022-10-26T08:35:07;15.70;99.90
6810;DHT22;3443;48.812;9.112;2022-10-26T08:37:33;15.60;99.90
6810;DHT22;3443;48.812;9.112;2022-10-26T08:39:59;15.60;99.90
6810;DHT22;3443;48.812;9.112;2022-10-26T08:42:36;15.60;99.90
6810;DHT22;3443;48.812;9.112;2022-10-26T08:47:57;15.70;99.90
6810;DHT22;3443;48.812;9.112;2022-10-26T08:50:32;15.70;99.90
6810;DHT22;3443;48.812;9.112;2022-10-26T08:55:45;15.90;99.90
6810;DHT22;3443;48.812;9.112;2022-10-26T08:58:20;16.00;99.90
6810;DHT22;3443;48.812;9.112;2022-10-26T09:00:48;16.10;99.90
6810;DHT22;3443;48.812;9.112;2022-10-26T09:03:16;16.20;99.90
6810;DHT22;3443;48.812;9.112;2022-10-26T09:06:07;16.20;99.90
6810;DHT22;3443;48.812;9.112;2022-10-26T09:08:46;16.30;99.90
6810;DHT22;3443;48.812;9.112;2022-10-26T09:14:30;16.60;99.90
6810;DHT22;3443;48.812;9.112;2022-10-26T09:25:25;17.20;99.90
6810;DHT22;3443;48.812;9.112;2022-10-26T09:27:57;17.40;99.90
6810;DHT22;3443;48.812;9.112;2022-10-26T09:30:23;17.50;99.90
6810;DHT22;3443;48.812;9.112;2022-10-26T09:32:52;17.60;99.90
6810;DHT22;3443;48.812;9.112;2022-10-26T09:35:23;17.40;99.90
6810;DHT22;3443;48.812;9.112;2022-10-26T09:37:57;17.70;99.90
6810;DHT22;3443;48.812;9.112;2022-10-26T09:43:17;17.80;99.90
6810;DHT22;3443;48.812;9.112;2022-10-26T09:45:48;17.90;99.90
6810;DHT22;3443;48.812;9.112;2022-10-26T09:48:16;18.00;99.90
6810;DHT22;3443;48.812;9.112;2022-10-26T09:50:47;18.00;99.90
6810;DHT22;3443;48.812;9.112;2022-10-26T09:53:13;17.90;99.90
6810;DHT22;3443;48.812;9.112;2022-10-26T09:55:47;17.90;99.90
6810;DHT22;3443;48.812;9.112;2022-10-26T09:58:18;17.90;99.90
6810;DHT22;3443;48.812;9.112;2022-10-26T10:00:45;17.90;99.90
6810;DHT22;3443;48.812;9.112;2022-10-26T10:03:25;18.00;99.90
6810;DHT22;3443;48.812;9.112;2022-10-26T10:05:51;18.00;99.90
6810;DHT22;3443;48.812;9.112;2022-10-26T10:08:22;18.00;99.90
6810;DHT22;3443;48.812;9.112;2022-10-26T10:11:06;18.00;99.90
6810;DHT22;3443;48.812;9.112;2022-10-26T10:13:40;18.00;99.90
6810;DHT22;3443;48.812;9.112;2022-10-26T10:16:18;18.10;99.90
6810;DHT22;3443;48.812;9.112;2022-10-26T10:18:55;18.10;99.90
6810;DHT22;3443;48.812;9.112;2022-10-26T10:21:34;18.20;99.90
6810;DHT22;3443;48.812;9.112;2022-10-26T10:24:00;18.20;99.90
6810;DHT22;3443;48.812;9.112;2022-10-26T10:26:26;18.20;99.90
6810;DHT22;3443;48.812;9.112;2022-10-26T10:28:57;18.40;99.90
6810;DHT22;3443;48.812;9.112;2022-10-26T10:31:31;18.40;99.90
6810;DHT22;3443;48.812;9.112;2022-10-26T10:33:57;18.60;99.90
6810;DHT22;3443;48.812;9.112;2022-10-26T10:36:25;18.90;99.90
6810;DHT22;3443;48.812;9.112;2022-10-26T10:38:52;19.00;99.90
6810;DHT22;3443;48.812;9.112;2022-10-26T10:41:31;19.00;99.90
6810;DHT22;3443;48.812;9.112;2022-10-26T10:44:07;18.90;99.90
6810;DHT22;3443;48.812;9.112;2022-10-26T10:46:41;18.90;99.90
6810;DHT22;3443;48.812;9.112;2022-10-26T10:49:19;18.90;99.90
6810;DHT22;3443;48.812;9.112;2022-10-26T10:51:45;18.90;99.90
6810;DHT22;3443;48.812;9.112;2022-10-26T10:54:33;18.90;99.90
6810;DHT22;3443;48.812;9.112;2022-10-26T11:08:02;19.10;99.90
6810;DHT22;3443;48.812;9.112;2022-10-26T11:10:49;19.40;99.90
6810;DHT22;3443;48.812;9.112;2022-10-26T11:13:23;19.60;99.90
6810;DHT22;3443;48.812;9.112;2022-10-26T11:15:53;19.60;99.90
6810;DHT22;3443;48.812;9.112;2022-10-26T11:21:02;19.60;99.90
6810;DHT22;3443;48.812;9.112;2022-10-26T11:23:36;19.50;99.90
6810;DHT22;3443;48.812;9.112;2022-10-26T11:26:12;19.50;99.90
6810;DHT22;3443;48.812;9.112;2022-10-26T11:28:47;19.60;99.90
6810;DHT22;3443;48.812;9.112;2022-10-26T11:31:22;19.80;99.90
6810;DHT22;3443;48.812;9.112;2022-10-26T11:34:30;19.90;99.90
6810;DHT22;3443;48.812;9.112;2022-10-26T11:37:33;20.00;99.90
6810;DHT22;3443;48.812;9.112;2022-10-26T11:45:25;20.20;99.90
6810;DHT22;3443;48.812;9.112;2022-10-26T11:48:00;20.30;99.90
6810;DHT22;3443;48.812;9.112;2022-10-26T11:50:32;20.30;99.90
6810;DHT22;3443;48.812;9.112;2022-10-26T11:53:02;20.40;99.90
6810;DHT22;3443;48.812;9.112;2022-10-26T11:55:32;20.30;99.90
6810;DHT22;3443;48.812;9.112;2022-10-26T11:57:58;20.30;99.90
6810;DHT22;3443;48.812;9.112;2022-10-26T12:00:25;20.30;99.90
6810;DHT22;3443;48.812;9.112;2022-10-26T12:03:01;20.30;99.90
6810;DHT22;3443;48.812;9.112;2022-10-26T12:08:03;20.20;99.90
6810;DHT22;3443;48.812;9.112;2022-10-26T12:10:32;20.20;99.90
6810;DHT22;3443;48.812;9.112;2022-10-26T12:15:44;20.20;99.90
6810;DHT22;3443;48.812;9.112;2022-10-26T12:18:35;20.20;99.90
6810;DHT22;3443;48.812;9.112;2022-10-26T12:21:03;20.30;99.90
6810;DHT22;3443;48.812;9.112;2022-10-26T12:23:34;20.30;99.90
6810;DHT22;3443;48.812;9.112;2022-10-26T12:39:42;20.40;99.90
6810;DHT22;3443;48.812;9.112;2022-10-26T12:45:01;20.50;99.90
6810;DHT22;3443;48.812;9.112;2022-10-26T12:52:55;20.70;99.90
6810;DHT22;3443;48.812;9.112;2022-10-26T13:04:23;21.30;99.90
6810;DHT22;3443;48.812;9.112;2022-10-26T13:07:17;21.40;99.90
6810;DHT22;3443;48.812;9.112;2022-10-26T13:12:23;21.40;99.90
6810;DHT22;3443;48.812;9.112;2022-10-26T13:20:24;21.30;99.90
6810;DHT22;3443;48.812;9.112;2022-10-26T13:22:50;21.40;99.90
6810;DHT22;3443;48.812;9.112;2022-10-26T13:25:28;21.50;99.90
6810;DHT22;3443;48.812;9.112;2022-10-26T13:28:31;21.50;99.90
6810;DHT22;3443;48.812;9.112;2022-10-26T13:30:57;21.60;99.90
6810;DHT22;3443;48.812;9.112;2022-10-26T13:33:26;21.50;99.90
6810;DHT22;3443;48.812;9.112;2022-10-26T13:35:55;21.50;99.90
6810;DHT22;3443;48.812;9.112;2022-10-26T13:38:25;21.60;99.90
6810;DHT22;3443;48.812;9.112;2022-10-26T13:41:03;21.70;99.90
6810;DHT22;3443;48.812;9.112;2022-10-26T13:43:30;21.70;99.90
6810;DHT22;3443;48.812;9.112;2022-10-26T13:45:58;21.80;99.90
6810;DHT22;3443;48.812;9.112;2022-10-26T13:48:39;21.80;99.90
6810;DHT22;3443;48.812;9.112;2022-10-26T13:51:18;21.80;99.90
6810;DHT22;3443;48.812;9.112;2022-10-26T13:53:50;21.90;99.90
6810;DHT22;3443;48.812;9.112;2022-10-26T13:56:36;21.80;99.90
6810;DHT22;3443;48.812;9.112;2022-10-26T13:59:09;21.80;99.90
6810;DHT22;3443;48.812;9.112;2022-10-26T14:01:36;21.80;99.90
6810;DHT22;3443;48.812;9.112;2022-10-26T14:04:15;21.70;99.90
6810;DHT22;3443;48.812;9.112;2022-10-26T14:06:47;21.60;99.90
6810;DHT22;3443;48.812;9.112;2022-10-26T14:09:15;21.60;99.90
6810;DHT22;3443;48.812;9.112;2022-10-26T14:11:55;21.50;99.90
6810;DHT22;3443;48.812;9.112;2022-10-26T14:14:28;21.60;99.90
6810;DHT22;3443;48.812;9.112;2022-10-26T14:16:55;21.50;99.90
6810;DHT22;3443;48.812;9.112;2022-10-26T14:21:55;21.70;99.90
6810;DHT22;3443;48.812;9.112;2022-10-26T14:24:32;21.70;99.90
6810;DHT22;3443;48.812;9.112;2022-10-26T14:26:59;21.60;99.90
6810;DHT22;3443;48.812;9.112;2022-10-26T14:29:26;21.50;99.90
6810;DHT22;3443;48.812;9.112;2022-10-26T14:31:55;21.50;99.90
6810;DHT22;3443;48.812;9.112;2022-10-26T14:34:21;21.40;99.90
6810;DHT22;3443;48.812;9.112;2022-10-26T14:39:36;21.20;99.90
6810;DHT22;3443;48.812;9.112;2022-10-26T14:42:30;21.10;99.90
6810;DHT22;3443;48.812;9.112;2022-10-26T14:44:57;21.00;99.90
6810;DHT22;3443;48.812;9.112;2022-10-26T14:47:34;21.00;99.90
6810;DHT22;3443;48.812;9.112;2022-10-26T14:50:01;20.90;99.90
6810;DHT22;3443;48.812;9.112;2022-10-26T14:52:30;20.80;99.90
6810;DHT22;3443;48.812;9.112;2022-10-26T14:55:03;20.80;99.90
6810;DHT22;3443;48.812;9.112;2022-10-26T14:57:34;20.80;99.90
6810;DHT22;3443;48.812;9.112;2022-10-26T15:00:20;20.80;99.90
6810;DHT22;3443;48.812;9.112;2022-10-26T15:02:48;20.70;99.90
6810;DHT22;3443;48.812;9.112;2022-10-26T15:07:48;20.40;99.90
6810;DHT22;3443;48.812;9.112;2022-10-26T15:13:29;20.20;99.90
6810;DHT22;3443;48.812;9.112;2022-10-26T15:16:10;20.10;99.90
6810;DHT22;3443;48.812;9.112;2022-10-26T15:18:40;20.00;99.90
6810;DHT22;3443;48.812;9.112;2022-10-26T15:21:34;19.80;99.90
6810;DHT22;3443;48.812;9.112;2022-10-26T15:24:01;19.70;99.90
6810;DHT22;3443;48.812;9.112;2022-10-26T15:26:28;19.60;99.90
6810;DHT22;3443;48.812;9.112;2022-10-26T15:28:54;19.40;99.90
6810;DHT22;3443;48.812;9.112;2022-10-26T15:36:24;19.40;99.90
6810;DHT22;3443;48.812;9.112;2022-10-26T15:38:51;19.30;99.90
6810;DHT22;3443;48.812;9.112;2022-10-26T15:41:30;19.20;99.90
6810;DHT22;3443;48.812;9.112;2022-10-26T15:43:58;19.10;99.90
6810;DHT22;3443;48.812;9.112;2022-10-26T15:46:29;19.10;99.90
6810;DHT22;3443;48.812;9.112;2022-10-26T15:48:57;18.90;99.90
6810;DHT22;3443;48.812;9.112;2022-10-26T15:51:24;18.70;99.90
6810;DHT22;3443;48.812;9.112;2022-10-26T15:53:50;18.50;99.90
6810;DHT22;3443;48.812;9.112;2022-10-26T15:56:18;18.30;99.90
6810;DHT22;3443;48.812;9.112;2022-10-26T15:58:44;18.20;99.90
6810;DHT22;3443;48.812;9.112;2022-10-26T16:01:14;18.10;99.90
6810;DHT22;3443;48.812;9.112;2022-10-26T16:03:40;17.90;99.90
6810;DHT22;3443;48.812;9.112;2022-10-26T16:06:32;17.80;99.90
6810;DHT22;3443;48.812;9.112;2022-10-26T16:09:00;17.70;99.90
6810;DHT22;3443;48.812;9.112;2022-10-26T16:11:26;17.50;99.90
6810;DHT22;3443;48.812;9.112;2022-10-26T16:13:52;17.40;99.90
6810;DHT22;3443;48.812;9.112;2022-10-26T16:16:19;17.40;99.90
6810;DHT22;3443;48.812;9.112;2022-10-26T16:18:46;17.30;99.90
6810;DHT22;3443;48.812;9.112;2022-10-26T16:21:16;17.30;99.90
6810;DHT22;3443;48.812;9.112;2022-10-26T16:23:44;17.00;99.90
6810;DHT22;3443;48.812;9.112;2022-10-26T16:26:10;17.10;99.90
6810;DHT22;3443;48.812;9.112;2022-10-26T16:28:36;17.10;99.90
6810;DHT22;3443;48.812;9.112;2022-10-26T16:31:07;17.00;99.90
6810;DHT22;3443;48.812;9.112;2022-10-26T16:33:34;16.90;99.90
6810;DHT22;3443;48.812;9.112;2022-10-26T16:36:01;16.80;99.90
6810;DHT22;3443;48.812;9.112;2022-10-26T16:38:27;16.60;99.90
6810;DHT22;3443;48.812;9.112;2022-10-26T16:41:14;16.70;99.90
6810;DHT22;3443;48.812;9.112;2022-10-26T16:43:42;16.60;99.90
6810;DHT22;3443;48.812;9.112;2022-10-26T16:46:14;16.50;99.90
6810;DHT22;3443;48.812;9.112;2022-10-26T16:48:42;16.40;99.90
6810;DHT22;3443;48.812;9.112;2022-10-26T16:51:10;16.40;99.90
6810;DHT22;3443;48.812;9.112;2022-10-26T16:53:37;16.30;99.90
6810;DHT22;3443;48.812;9.112;2022-10-26T16:56:04;16.20;99.90
6810;DHT22;3443;48.812;9.112;2022-10-26T16:58:30;16.20;99.90
6810;DHT22;3443;48.812;9.112;2022-10-26T17:00:56;16.10;99.90
6810;DHT22;3443;48.812;9.112;2022-10-26T17:03:21;16.10;99.90
6810;DHT22;3443;48.812;9.112;2022-10-26T17:05:52;16.10;99.90
6810;DHT22;3443;48.812;9.112;2022-10-26T17:08:18;16.00;99.90
6810;DHT22;3443;48.812;9.112;2022-10-26T17:10:43;16.00;99.90
6810;DHT22;3443;48.812;9.112;2022-10-26T17:13:09;15.90;99.90
6810;DHT22;3443;48.812;9.112;2022-10-26T17:15:34;15.90;99.90
6810;DHT22;3443;48.812;9.112;2022-10-26T17:18:00;16.00;99.90
6810;DHT22;3443;48.812;9.112;2022-10-26T17:20:25;15.70;99.90
6810;DHT22;3443;48.812;9.112;2022-10-26T17:22:51;15.70;99.90
6810;DHT22;3443;48.812;9.112;2022-10-26T17:25:16;15.80;99.90
6810;DHT22;3443;48.812;9.112;2022-10-26T17:27:42;15.60;99.90
6810;DHT22;3443;48.812;9.112;2022-10-26T17:30:08;15.60;99.90
6810;DHT22;3443;48.812;9.112;2022-10-26T17:32:33;15.50;99.90
6810;DHT22;3443;48.812;9.112;2022-10-26T17:34:59;15.50;99.90
6810;DHT22;3443;48.812;9.112;2022-10-26T17:37:26;15.50;99.90
6810;DHT22;3443;48.812;9.112;2022-10-26T17:39:51;15.40;99.90
6810;DHT22;3443;48.812;9.112;2022-10-26T17:42:17;15.40;99.90
6810;DHT22;3443;48.812;9.112;2022-10-26T17:44:42;15.30;99.90
6810;DHT22;3443;48.812;9.112;2022-10-26T17:47:08;15.30;99.90
6810;DHT22;3443;48.812;9.112;2022-10-26T17:49:34;15.30;99.90
6810;DHT22;3443;48.812;9.112;2022-10-26T17:51:59;15.20;99.90
6810;DHT22;3443;48.812;9.112;2022-10-26T17:54:25;15.10;99.90
6810;DHT22;3443;48.812;9.112;2022-10-26T17:56:50;15.10;99.90
6810;DHT22;3443;48.812;9.112;2022-10-26T17:59:16;15.10;99.90
6810;DHT22;3443;48.812;9.112;2022-10-26T18:01:43;15.00;99.90
6810;DHT22;3443;48.812;9.112;2022-10-26T18:04:09;15.00;99.90
6810;DHT22;3443;48.812;9.112;2022-10-26T18:06:34;15.00;99.90
6810;DHT22;3443;48.812;9.112;2022-10-26T18:09:00;15.00;99.90
6810;DHT22;3443;48.812;9.112;2022-10-26T18:11:26;14.90;99.90
6810;DHT22;3443;48.812;9.112;2022-10-26T18:13:53;14.90;99.90
6810;DHT22;3443;48.812;9.112;2022-10-26T18:16:21;14.80;99.90
6810;DHT22;3443;48.812;9.112;2022-10-26T18:18:48;14.80;99.90
6810;DHT22;3443;48.812;9.112;2022-10-26T18:21:18;14.80;99.90
6810;DHT22;3443;48.812;9.112;2022-10-26T18:23:45;14.80;99.90
6810;DHT22;3443;48.812;9.112;2022-10-26T18:26:18;14.70;99.90